createdAt,value
2024-01-29T00:00:53.831Z,39.48
2024-01-29T00:01:57.353Z,39.05
2024-01-29T00:03:00.416Z,39.23
2024-01-29T00:04:03.565Z,40.35
2024-01-29T00:05:07.119Z,41.00
2024-01-29T00:06:10.169Z,41.47
2024-01-29T00:07:13.298Z,41.30
2024-01-29T00:08:16.304Z,41.55
2024-01-29T00:09:19.584Z,42.30
2024-01-29T00:10:23.486Z,42.60
2024-01-29T00:11:26.755Z,41.87
2024-01-29T00:12:29.888Z,41.00
2024-01-29T00:13:33.269Z,40.57
2024-01-29T00:14:36.274Z,40.38
2024-01-29T00:15:40.199Z,40.53
2024-01-29T00:16:43.237Z,40.03
2024-01-29T00:17:46.308Z,40.22
2024-01-29T00:18:49.443Z,41.92
2024-01-29T00:19:52.674Z,44.95
2024-01-29T00:20:58.537Z,45.67
2024-01-29T00:22:01.617Z,44.93
2024-01-29T00:23:04.821Z,46.25
2024-01-29T00:24:07.814Z,47.70
2024-01-29T00:25:11.116Z,50.40
2024-01-29T00:26:14.978Z,50.47
2024-01-29T00:27:19.924Z,50.20
2024-01-29T00:28:23.251Z,49.38
2024-01-29T00:29:26.253Z,47.85
2024-01-29T00:30:29.308Z,47.12
2024-01-29T00:31:32.306Z,46.72
2024-01-29T00:32:35.371Z,49.33
2024-01-29T00:33:38.622Z,49.73
2024-01-29T00:34:41.843Z,48.75
2024-01-29T00:35:44.972Z,49.60
2024-01-29T00:36:47.987Z,48.68
2024-01-29T00:37:51.103Z,47.40
2024-01-29T00:38:54.130Z,48.78
2024-01-29T00:39:57.189Z,47.42
2024-01-29T00:41:00.588Z,48.90
2024-01-29T00:42:03.768Z,48.70
2024-01-29T00:43:07.144Z,48.75
2024-01-29T00:44:10.209Z,48.75
2024-01-29T00:45:13.850Z,49.07
2024-01-29T00:46:16.976Z,48.32
2024-01-29T00:47:21.622Z,47.88
2024-01-29T00:48:26.317Z,50.95
2024-01-29T00:49:33.048Z,50.40
2024-01-29T00:50:36.170Z,56.20
2024-01-29T00:51:40.253Z,58.13
2024-01-29T00:52:43.279Z,57.40
2024-01-29T00:53:46.281Z,59.15
2024-01-29T00:54:49.345Z,59.03
2024-01-29T00:55:52.383Z,57.75
2024-01-29T00:56:55.422Z,57.33
2024-01-29T00:57:58.462Z,56.73
2024-01-29T00:59:01.468Z,55.87
2024-01-29T01:00:05.563Z,57.53
2024-01-29T01:01:08.628Z,55.70
2024-01-29T01:02:11.703Z,56.12
2024-01-29T01:03:14.965Z,54.13
2024-01-29T01:04:18.450Z,56.07
2024-01-29T01:05:21.816Z,54.58
2024-01-29T01:06:25.990Z,54.08
2024-01-29T01:07:29.486Z,55.30
2024-01-29T01:08:32.845Z,54.67
2024-01-29T01:09:35.928Z,56.47
2024-01-29T01:10:39.011Z,54.97
2024-01-29T01:11:44.725Z,55.02
2024-01-29T01:12:47.737Z,56.05
2024-01-29T01:13:51.120Z,53.85
2024-01-29T01:14:54.132Z,54.93
2024-01-29T01:15:57.145Z,54.87
2024-01-29T01:17:00.224Z,54.78
2024-01-29T01:18:04.949Z,55.52
2024-01-29T01:19:08.117Z,55.42
2024-01-29T01:20:12.482Z,55.82
2024-01-29T01:21:16.557Z,56.02
2024-01-29T01:22:19.545Z,55.13
2024-01-29T01:23:22.569Z,56.62
2024-01-29T01:24:25.584Z,54.23
2024-01-29T01:25:28.806Z,55.93
2024-01-29T01:26:33.152Z,53.67
2024-01-29T01:27:36.280Z,55.07
2024-01-29T01:28:39.264Z,55.32
2024-01-29T01:29:42.254Z,55.17
2024-01-29T01:30:45.284Z,54.70
2024-01-29T01:31:48.456Z,55.42
2024-01-29T01:32:51.613Z,52.63
2024-01-29T01:33:54.688Z,52.48
2024-01-29T01:34:57.952Z,51.83
2024-01-29T01:36:01.049Z,53.07
2024-01-29T01:37:04.255Z,52.87
2024-01-29T01:38:07.442Z,53.80
2024-01-29T01:39:10.465Z,51.23
2024-01-29T01:40:13.852Z,51.48
2024-01-29T01:41:16.846Z,53.05
2024-01-29T01:42:20.978Z,53.25
2024-01-29T01:43:27.265Z,53.42
2024-01-29T01:44:30.294Z,52.13
2024-01-29T01:45:33.429Z,51.73
2024-01-29T01:46:36.698Z,50.30
2024-01-29T01:47:39.808Z,50.73
2024-01-29T01:48:42.920Z,52.43
2024-01-29T01:49:46.123Z,52.37
2024-01-29T01:50:49.152Z,51.83
2024-01-29T01:51:52.542Z,51.32
2024-01-29T01:52:55.883Z,50.82
2024-01-29T01:54:02.390Z,53.18
2024-01-29T01:55:05.958Z,52.43
2024-01-29T01:56:09.299Z,51.50
2024-01-29T01:57:12.332Z,51.03
2024-01-29T01:58:18.390Z,54.42
2024-01-29T01:59:21.618Z,52.57
2024-01-29T02:00:24.876Z,52.03
2024-01-29T02:01:29.438Z,53.05
2024-01-29T02:02:32.593Z,51.45
2024-01-29T02:03:36.257Z,50.77
2024-01-29T02:04:39.372Z,52.40
2024-01-29T02:05:42.710Z,52.63
2024-01-29T02:06:47.760Z,53.90
2024-01-29T02:07:52.096Z,51.90
2024-01-29T02:08:56.084Z,51.43
2024-01-29T02:09:59.245Z,54.67
2024-01-29T02:11:02.305Z,54.45
2024-01-29T02:12:05.571Z,52.60
2024-01-29T02:13:15.297Z,52.90
2024-01-29T02:14:18.343Z,52.42
2024-01-29T02:15:21.388Z,53.75
2024-01-29T02:16:24.474Z,53.38
2024-01-29T02:17:27.553Z,52.68
2024-01-29T02:18:31.272Z,52.28
2024-01-29T02:19:34.459Z,53.10
2024-01-29T02:20:37.544Z,50.07
2024-01-29T02:21:40.628Z,53.63
2024-01-29T02:22:46.283Z,52.95
2024-01-29T02:23:49.284Z,53.05
2024-01-29T02:24:52.291Z,52.20
2024-01-29T02:25:55.322Z,51.55
2024-01-29T02:26:58.312Z,51.83
2024-01-29T02:28:01.433Z,54.85
2024-01-29T02:29:04.576Z,54.15
2024-01-29T02:30:08.099Z,54.90
2024-01-29T02:31:12.692Z,53.05
2024-01-29T02:32:17.123Z,52.27
2024-01-29T02:33:21.059Z,54.92
2024-01-29T02:34:24.517Z,52.82
2024-01-29T02:35:27.553Z,52.60
2024-01-29T02:36:30.610Z,52.45
2024-01-29T02:37:33.924Z,52.63
2024-01-29T02:38:37.873Z,53.25
2024-01-29T02:39:40.926Z,52.55
2024-01-29T02:40:44.002Z,54.42
2024-01-29T02:41:47.013Z,54.23
2024-01-29T02:42:50.055Z,51.67
2024-01-29T02:43:53.066Z,52.67
2024-01-29T02:44:56.054Z,53.18
2024-01-29T02:45:59.115Z,51.73
2024-01-29T02:47:02.155Z,51.90
2024-01-29T02:48:06.289Z,51.97
2024-01-29T02:49:09.536Z,53.03
2024-01-29T02:50:12.744Z,52.52
2024-01-29T02:51:15.827Z,52.62
2024-01-29T02:52:20.470Z,54.97
2024-01-29T02:53:23.489Z,55.63
2024-01-29T02:54:26.520Z,53.53
2024-01-29T02:55:29.555Z,53.45
2024-01-29T02:56:32.621Z,53.18
2024-01-29T02:57:35.783Z,51.87
2024-01-29T02:58:38.777Z,52.27
2024-01-29T02:59:41.890Z,53.45
2024-01-29T03:00:44.979Z,55.00
2024-01-29T03:01:48.096Z,52.58
2024-01-29T03:02:51.169Z,53.15
2024-01-29T03:03:54.214Z,54.25
2024-01-29T03:04:57.364Z,54.47
2024-01-29T03:06:00.844Z,53.10
2024-01-29T03:07:04.023Z,53.95
2024-01-29T03:08:07.579Z,53.33
2024-01-29T03:09:10.629Z,53.35
2024-01-29T03:10:13.677Z,53.55
2024-01-29T03:11:16.679Z,52.65
2024-01-29T03:12:19.690Z,53.15
2024-01-29T03:13:22.671Z,53.37
2024-01-29T03:14:25.653Z,52.45
2024-01-29T03:15:28.724Z,52.08
2024-01-29T03:16:31.974Z,53.10
2024-01-29T03:17:34.996Z,52.67
2024-01-29T03:18:38.736Z,53.98
2024-01-29T03:19:41.892Z,52.55
2024-01-29T03:20:44.939Z,51.68
2024-01-29T03:21:48.186Z,52.53
2024-01-29T03:22:51.198Z,54.10
2024-01-29T03:23:54.974Z,53.85
2024-01-29T03:24:58.004Z,52.87
2024-01-29T03:26:01.042Z,52.90
2024-01-29T03:27:04.244Z,52.67
2024-01-29T03:28:07.274Z,52.80
2024-01-29T03:29:10.273Z,52.93
2024-01-29T03:30:13.602Z,51.45
2024-01-29T03:31:39.665Z,51.85
2024-01-29T03:32:43.099Z,53.00
2024-01-29T03:33:46.168Z,53.77
2024-01-29T03:34:49.243Z,53.75
2024-01-29T03:35:52.241Z,51.80
2024-01-29T03:36:55.273Z,51.40
2024-01-29T03:37:58.310Z,52.78
2024-01-29T03:39:01.338Z,53.38
2024-01-29T03:40:06.464Z,51.73
2024-01-29T03:41:09.534Z,51.63
2024-01-29T03:42:12.533Z,51.00
2024-01-29T03:43:15.567Z,51.30
2024-01-29T03:44:18.565Z,50.70
2024-01-29T03:45:22.065Z,51.02
2024-01-29T03:46:25.120Z,52.10
2024-01-29T03:47:28.208Z,51.32
2024-01-29T03:48:31.428Z,50.78
2024-01-29T03:49:35.870Z,53.57
2024-01-29T03:50:38.918Z,52.80
2024-01-29T03:51:41.942Z,51.13
2024-01-29T03:52:46.013Z,50.88
2024-01-29T03:53:49.054Z,51.45
2024-01-29T03:54:52.091Z,50.67
2024-01-29T03:55:56.364Z,52.02
2024-01-29T03:56:59.477Z,50.88
2024-01-29T03:58:02.492Z,53.38
2024-01-29T03:59:05.770Z,52.75
2024-01-29T04:00:10.373Z,51.67
2024-01-29T04:01:13.576Z,51.30
2024-01-29T04:02:16.647Z,50.28
2024-01-29T04:03:19.712Z,50.32
2024-01-29T04:04:22.836Z,51.30
2024-01-29T04:05:26.273Z,51.10
2024-01-29T04:06:29.479Z,50.93
2024-01-29T04:07:32.668Z,51.72
2024-01-29T04:08:35.791Z,49.08
2024-01-29T04:09:38.849Z,49.93
2024-01-29T04:10:41.921Z,49.50
2024-01-29T04:11:44.926Z,49.87
2024-01-29T04:12:48.534Z,50.88
2024-01-29T04:13:51.563Z,49.87
2024-01-29T04:14:54.611Z,49.35
2024-01-29T04:15:57.734Z,48.80
2024-01-29T04:17:00.765Z,46.72
2024-01-29T04:18:03.953Z,48.08
2024-01-29T04:19:07.063Z,47.73
2024-01-29T04:20:10.681Z,47.50
2024-01-29T04:21:13.657Z,46.88
2024-01-29T04:22:16.829Z,45.67
2024-01-29T04:23:19.865Z,43.18
2024-01-29T04:24:22.868Z,44.05
2024-01-29T04:25:25.884Z,45.17
2024-01-29T04:26:29.737Z,45.88
2024-01-29T04:27:32.794Z,44.18
2024-01-29T04:28:35.815Z,45.12
2024-01-29T04:29:39.654Z,44.18
2024-01-29T04:30:43.950Z,43.50
2024-01-29T04:31:46.984Z,43.35
2024-01-29T04:32:50.063Z,44.23
2024-01-29T04:33:53.203Z,43.32
2024-01-29T04:34:56.314Z,43.65
2024-01-29T04:35:59.981Z,44.48
2024-01-29T04:37:03.040Z,43.87
2024-01-29T04:38:06.097Z,43.47
2024-01-29T04:39:09.094Z,41.70
2024-01-29T04:40:13.346Z,42.02
2024-01-29T04:41:23.284Z,43.35
2024-01-29T04:42:26.332Z,43.38
2024-01-29T04:43:29.345Z,43.68
2024-01-29T04:44:32.331Z,43.12
2024-01-29T04:45:35.331Z,43.72
2024-01-29T04:46:38.685Z,41.38
2024-01-29T04:47:41.745Z,42.40
2024-01-29T04:48:44.813Z,41.48
2024-01-29T04:49:48.002Z,42.37
2024-01-29T04:50:51.007Z,42.27
2024-01-29T04:51:54.174Z,40.53
2024-01-29T04:52:57.221Z,41.70
2024-01-29T04:54:00.512Z,42.65
2024-01-29T04:55:05.638Z,42.83
2024-01-29T04:56:09.253Z,42.05
2024-01-29T04:57:12.242Z,41.98
2024-01-29T04:58:15.409Z,41.22
2024-01-29T04:59:19.112Z,41.43
2024-01-29T05:00:22.210Z,42.32
2024-01-29T05:01:26.163Z,41.83
2024-01-29T05:02:29.219Z,42.05
2024-01-29T05:03:32.334Z,42.63
2024-01-29T05:04:35.524Z,40.38
2024-01-29T05:05:38.611Z,41.37
2024-01-29T05:06:42.072Z,41.48
2024-01-29T05:07:45.140Z,40.42
2024-01-29T05:08:48.146Z,40.28
2024-01-29T05:09:51.172Z,41.48
2024-01-29T05:10:54.846Z,41.80
2024-01-29T05:11:58.625Z,40.65
2024-01-29T05:13:01.679Z,40.68
2024-01-29T05:14:04.831Z,41.15
2024-01-29T05:15:08.232Z,42.08
2024-01-29T05:16:15.147Z,43.00
2024-01-29T05:17:18.210Z,41.05
2024-01-29T05:18:21.785Z,39.98
2024-01-29T05:19:24.830Z,41.17
2024-01-29T05:20:27.918Z,41.47
2024-01-29T05:21:30.954Z,42.02
2024-01-29T05:22:33.947Z,41.48
2024-01-29T05:23:36.928Z,41.60
2024-01-29T05:24:40.379Z,41.28
2024-01-29T05:25:44.015Z,41.80
2024-01-29T05:26:47.024Z,40.67
2024-01-29T05:27:50.089Z,41.28
2024-01-29T05:28:53.192Z,41.82
2024-01-29T05:29:56.188Z,43.55
2024-01-29T05:30:59.203Z,40.12
2024-01-29T05:32:02.232Z,40.12
2024-01-29T05:33:24.425Z,40.33
2024-01-29T05:34:28.457Z,39.80
2024-01-29T05:35:31.509Z,39.77
2024-01-29T05:36:34.509Z,40.18
2024-01-29T05:37:37.613Z,40.22
2024-01-29T05:38:40.610Z,39.78
2024-01-29T05:39:43.809Z,39.78
2024-01-29T05:40:46.819Z,43.82
2024-01-29T05:41:49.836Z,45.28
2024-01-29T05:42:56.227Z,45.73
2024-01-29T05:44:00.600Z,44.52
2024-01-29T05:45:04.475Z,47.60
2024-01-29T05:46:07.524Z,46.80
2024-01-29T05:47:10.575Z,47.17
2024-01-29T05:48:14.750Z,47.28
2024-01-29T05:49:19.987Z,47.65
2024-01-29T05:50:23.080Z,45.85
2024-01-29T05:51:26.142Z,45.23
2024-01-29T05:52:29.144Z,45.78
2024-01-29T05:53:33.090Z,46.38
2024-01-29T05:54:36.110Z,44.22
2024-01-29T05:55:39.153Z,44.62
2024-01-29T05:56:43.559Z,46.55
2024-01-29T05:57:46.583Z,45.22
2024-01-29T05:58:50.370Z,45.10
2024-01-29T05:59:53.378Z,44.12
2024-01-29T06:00:56.470Z,44.27
2024-01-29T06:01:59.700Z,43.52
2024-01-29T06:03:02.842Z,41.05
2024-01-29T06:04:05.974Z,41.53
2024-01-29T06:05:09.318Z,42.42
2024-01-29T06:06:12.422Z,41.08
2024-01-29T06:07:15.479Z,41.80
2024-01-29T06:08:18.588Z,41.28
2024-01-29T06:09:21.617Z,40.92
2024-01-29T06:10:24.613Z,41.80
2024-01-29T06:11:28.637Z,38.47
2024-01-29T06:12:31.664Z,39.82
2024-01-29T06:13:34.927Z,39.47
2024-01-29T06:14:37.936Z,38.82
2024-01-29T06:15:41.008Z,37.67
2024-01-29T06:16:47.320Z,38.48
2024-01-29T06:17:50.404Z,36.98
2024-01-29T06:18:53.711Z,37.05
2024-01-29T06:20:08.994Z,39.52
2024-01-29T06:21:19.538Z,37.22
2024-01-29T06:22:22.541Z,38.60
2024-01-29T06:23:25.550Z,38.28
2024-01-29T06:24:28.570Z,37.77
2024-01-29T06:25:31.719Z,37.43
2024-01-29T06:26:34.758Z,39.90
2024-01-29T06:27:37.814Z,39.00
2024-01-29T06:28:43.146Z,40.00
2024-01-29T06:29:46.168Z,38.48
2024-01-29T06:30:49.296Z,38.75
2024-01-29T06:31:52.314Z,39.30
2024-01-29T06:32:55.325Z,40.38
2024-01-29T06:33:58.853Z,42.05
2024-01-29T06:35:02.060Z,40.98
2024-01-29T06:36:08.496Z,42.88
2024-01-29T06:37:11.526Z,42.95
2024-01-29T06:38:14.553Z,41.95
2024-01-29T06:39:17.553Z,43.03
2024-01-29T06:40:28.470Z,43.37
2024-01-29T06:41:32.654Z,42.95
2024-01-29T06:42:36.360Z,42.90
2024-01-29T06:43:39.362Z,44.17
2024-01-29T06:44:42.668Z,44.72
2024-01-29T06:45:45.808Z,52.70
2024-01-29T06:46:48.811Z,58.93
2024-01-29T06:47:51.828Z,60.80
2024-01-29T06:48:54.905Z,60.38
2024-01-29T06:50:00.669Z,62.50
2024-01-29T06:51:04.285Z,55.77
2024-01-29T06:52:11.285Z,50.58
2024-01-29T06:53:16.231Z,57.50
2024-01-29T06:54:19.244Z,55.18
2024-01-29T06:55:24.542Z,54.23
2024-01-29T06:56:28.400Z,51.42
2024-01-29T06:57:31.420Z,53.73
2024-01-29T06:58:38.737Z,53.92
2024-01-29T06:59:41.833Z,56.82
2024-01-29T07:00:44.994Z,59.08
2024-01-29T07:01:48.141Z,57.75
2024-01-29T07:02:51.339Z,56.72
2024-01-29T07:03:54.745Z,58.72
2024-01-29T07:04:57.775Z,59.32
2024-01-29T07:06:00.892Z,55.68
2024-01-29T07:07:04.479Z,54.05
2024-01-29T07:08:07.589Z,54.25
2024-01-29T07:09:10.598Z,55.45
2024-01-29T07:10:15.686Z,54.27
2024-01-29T07:11:18.943Z,56.78
2024-01-29T07:12:23.336Z,56.98
2024-01-29T07:13:27.212Z,59.82
2024-01-29T07:14:30.199Z,61.58
2024-01-29T07:15:33.227Z,64.62
2024-01-29T07:16:36.237Z,62.30
2024-01-29T07:17:39.291Z,59.92
2024-01-29T07:18:42.777Z,58.22
2024-01-29T07:19:48.440Z,58.22
2024-01-29T07:20:51.577Z,56.92
2024-01-29T07:21:55.255Z,57.53
2024-01-29T07:22:58.316Z,53.85
2024-01-29T07:24:01.309Z,99.52
2024-01-29T07:25:08.180Z,97.22
2024-01-29T07:26:11.231Z,103.50
2024-01-29T07:27:14.794Z,63.40
2024-01-29T07:28:17.851Z,55.22
2024-01-29T07:29:20.904Z,57.35
2024-01-29T07:30:23.950Z,59.25
2024-01-29T07:31:27.002Z,55.90
2024-01-29T07:32:33.345Z,53.07
2024-01-29T07:33:37.109Z,51.70
2024-01-29T07:34:40.349Z,52.08
2024-01-29T07:35:43.570Z,52.15
2024-01-29T07:36:47.654Z,51.25
2024-01-29T07:37:50.852Z,49.60
2024-01-29T07:38:53.957Z,50.27
2024-01-29T07:39:57.761Z,47.82
2024-01-29T07:41:00.968Z,47.70
2024-01-29T07:42:04.159Z,46.30
2024-01-29T07:43:07.669Z,46.07
2024-01-29T07:44:10.718Z,45.13
2024-01-29T07:45:14.594Z,45.42
2024-01-29T07:46:17.678Z,42.47
2024-01-29T07:47:20.703Z,40.98
2024-01-29T07:48:23.775Z,40.03
2024-01-29T07:49:29.042Z,40.73
2024-01-29T07:50:35.181Z,39.52
2024-01-29T07:51:41.718Z,38.75
2024-01-29T07:52:44.900Z,39.65
2024-01-29T07:53:47.923Z,39.28
2024-01-29T07:54:50.950Z,38.18
2024-01-29T07:55:54.388Z,38.43
2024-01-29T07:56:57.418Z,39.73
2024-01-29T07:58:00.652Z,41.67
2024-01-29T07:59:03.728Z,41.65
2024-01-29T08:00:07.641Z,42.87
2024-01-29T08:01:10.724Z,44.18
2024-01-29T08:02:13.922Z,44.20
2024-01-29T08:03:17.034Z,43.22
2024-01-29T08:04:20.202Z,44.62
2024-01-29T08:05:23.331Z,41.77
2024-01-29T08:06:26.563Z,43.93
2024-01-29T08:07:29.624Z,46.00
2024-01-29T08:08:32.631Z,46.78
2024-01-29T08:09:36.117Z,46.48
2024-01-29T08:10:39.199Z,45.88
2024-01-29T08:11:42.203Z,48.40
2024-01-29T08:12:45.220Z,50.37
2024-01-29T08:13:48.234Z,52.37
2024-01-29T08:14:51.338Z,51.52
2024-01-29T08:15:55.853Z,48.97
2024-01-29T08:16:59.403Z,48.38
2024-01-29T08:18:02.826Z,45.23
2024-01-29T08:19:06.153Z,44.72
2024-01-29T08:20:10.082Z,46.45
2024-01-29T08:21:13.306Z,43.87
2024-01-29T08:22:16.367Z,47.20
2024-01-29T08:23:19.622Z,47.42
2024-01-29T08:24:22.683Z,46.78
2024-01-29T08:25:27.405Z,45.47
2024-01-29T08:26:30.493Z,48.25
2024-01-29T08:27:33.550Z,49.78
2024-01-29T08:28:36.687Z,48.75
2024-01-29T08:29:39.694Z,48.93
2024-01-29T08:30:42.725Z,47.55
2024-01-29T08:31:46.186Z,47.43
2024-01-29T08:32:49.431Z,45.53
2024-01-29T08:33:52.775Z,43.00
2024-01-29T08:34:55.927Z,43.92
2024-01-29T08:35:59.170Z,43.17
2024-01-29T08:37:02.197Z,40.02
2024-01-29T08:38:07.396Z,38.07
2024-01-29T08:39:11.766Z,39.30
2024-01-29T08:40:15.100Z,39.82
2024-01-29T08:41:18.109Z,38.67
2024-01-29T08:42:21.109Z,35.13
2024-01-29T08:43:24.292Z,38.07
2024-01-29T08:44:27.848Z,36.82
2024-01-29T08:45:30.873Z,39.65
2024-01-29T08:46:33.896Z,52.63
2024-01-29T08:47:36.920Z,51.60
2024-01-29T08:48:39.993Z,51.10
2024-01-29T08:49:43.051Z,51.55
2024-01-29T08:50:46.435Z,51.35
2024-01-29T08:51:49.853Z,50.83
2024-01-29T08:52:52.906Z,46.33
2024-01-29T08:53:57.378Z,43.57
2024-01-29T08:55:01.217Z,42.63
2024-01-29T08:56:08.394Z,38.57
2024-01-29T08:57:11.803Z,36.20
2024-01-29T08:58:15.945Z,37.10
2024-01-29T08:59:20.802Z,37.02
2024-01-29T09:00:24.165Z,36.62
2024-01-29T09:01:27.240Z,32.98
2024-01-29T09:02:33.249Z,34.30
2024-01-29T09:03:38.343Z,34.97
2024-01-29T09:04:43.311Z,40.55
2024-01-29T09:05:47.933Z,40.30
2024-01-29T09:06:51.902Z,36.88
2024-01-29T09:07:56.219Z,36.97
2024-01-29T09:09:00.239Z,38.68
2024-01-29T09:10:05.186Z,38.45
2024-01-29T09:11:08.238Z,37.12
2024-01-29T09:12:11.204Z,37.15
2024-01-29T09:13:14.371Z,37.97
2024-01-29T09:14:17.463Z,36.13
2024-01-29T09:15:20.461Z,34.88
2024-01-29T09:16:23.514Z,35.30
2024-01-29T09:17:26.630Z,33.67
2024-01-29T09:18:29.740Z,34.35
2024-01-29T09:19:32.902Z,32.88
2024-01-29T09:20:35.918Z,31.77
2024-01-29T09:21:38.969Z,33.35
2024-01-29T09:22:42.640Z,33.57
2024-01-29T09:23:45.668Z,35.12
2024-01-29T09:24:48.668Z,35.48
2024-01-29T09:25:51.670Z,32.63
2024-01-29T09:26:54.965Z,33.20
2024-01-29T09:27:58.274Z,33.43
2024-01-29T09:29:01.306Z,33.03
2024-01-29T09:30:08.520Z,32.65
2024-01-29T09:31:11.516Z,31.73
2024-01-29T09:32:14.596Z,30.28
2024-01-29T09:33:22.638Z,29.22
2024-01-29T09:34:26.882Z,28.72
2024-01-29T09:35:30.127Z,30.47
2024-01-29T09:36:33.415Z,30.12
2024-01-29T09:37:36.859Z,30.17
2024-01-29T09:38:40.017Z,29.50
2024-01-29T09:39:43.062Z,28.67
2024-01-29T09:40:47.635Z,26.90
2024-01-29T09:41:53.267Z,27.32
2024-01-29T09:42:59.018Z,28.85
2024-01-29T09:44:07.714Z,27.67
2024-01-29T09:45:13.080Z,26.42
2024-01-29T09:46:19.525Z,26.37
2024-01-29T09:47:22.852Z,26.50
2024-01-29T09:48:27.843Z,27.77
2024-01-29T09:49:34.852Z,27.32
2024-01-29T09:50:38.922Z,26.73
2024-01-29T09:51:47.658Z,29.80
2024-01-29T09:52:57.129Z,29.47
2024-01-29T09:54:03.147Z,28.20
2024-01-29T09:55:07.723Z,28.00
2024-01-29T09:56:10.763Z,29.60
2024-01-29T09:57:14.138Z,26.20
2024-01-29T09:58:17.441Z,24.93
2024-01-29T09:59:20.470Z,25.12
2024-01-29T10:00:23.723Z,26.38
2024-01-29T10:01:26.910Z,26.80
2024-01-29T10:02:35.707Z,27.22
2024-01-29T10:03:40.251Z,26.52
2024-01-29T10:04:43.314Z,28.52
2024-01-29T10:05:46.482Z,24.95
2024-01-29T10:06:50.225Z,23.33
2024-01-29T10:07:55.374Z,23.05
2024-01-29T10:08:58.706Z,22.17
2024-01-29T10:10:09.898Z,22.72
2024-01-29T10:11:13.058Z,23.73
2024-01-29T10:12:29.306Z,23.48
2024-01-29T10:13:32.777Z,23.15
2024-01-29T10:14:36.235Z,21.98
2024-01-29T10:15:39.374Z,21.17
2024-01-29T10:16:42.484Z,20.42
2024-01-29T10:17:46.231Z,20.95
2024-01-29T10:18:58.500Z,20.72
2024-01-29T10:20:01.906Z,20.05
2024-01-29T10:21:07.371Z,20.70
2024-01-29T10:22:14.450Z,20.85
2024-01-29T10:23:17.656Z,20.73
2024-01-29T10:24:20.655Z,19.65
2024-01-29T10:25:24.493Z,18.17
2024-01-29T10:26:28.194Z,17.82
2024-01-29T10:27:31.941Z,17.43
2024-01-29T10:28:34.934Z,16.58
2024-01-29T10:29:58.188Z,17.62
2024-01-29T10:31:01.202Z,19.33
2024-01-29T10:32:04.446Z,19.07
2024-01-29T10:33:10.766Z,19.07
2024-01-29T10:34:13.972Z,19.35
2024-01-29T10:35:17.365Z,19.80
2024-01-29T10:36:21.098Z,19.33
2024-01-29T10:37:27.876Z,19.48
2024-01-29T10:38:36.026Z,18.88
2024-01-29T10:39:46.956Z,17.68
2024-01-29T10:41:00.246Z,18.60
2024-01-29T10:42:03.543Z,19.77
2024-01-29T10:43:07.720Z,20.35
2024-01-29T10:44:12.913Z,18.72
2024-01-29T10:45:21.497Z,19.50
2024-01-29T10:46:25.141Z,20.12
2024-01-29T10:47:37.557Z,18.82
2024-01-29T10:48:41.781Z,17.77
2024-01-29T10:49:46.521Z,18.10
2024-01-29T10:50:51.370Z,17.28
2024-01-29T10:51:55.418Z,17.70
2024-01-29T10:53:04.703Z,17.87
2024-01-29T10:54:11.667Z,18.12
2024-01-29T10:55:17.362Z,17.90
2024-01-29T10:56:21.460Z,17.98
2024-01-29T10:57:26.054Z,18.17
2024-01-29T10:58:29.728Z,18.03
2024-01-29T10:59:32.942Z,18.43
2024-01-29T11:00:36.730Z,18.37
2024-01-29T11:01:44.477Z,19.07
2024-01-29T11:02:52.791Z,19.73
2024-01-29T11:04:00.878Z,18.43
2024-01-29T11:05:04.906Z,18.58
2024-01-29T11:06:20.721Z,17.68
2024-01-29T11:07:29.078Z,19.98
2024-01-29T11:08:36.812Z,19.28
2024-01-29T11:10:12.925Z,18.37
2024-01-29T11:11:16.476Z,18.95
2024-01-29T11:12:19.580Z,18.53
2024-01-29T11:13:24.331Z,16.72
2024-01-29T11:14:27.488Z,17.40
2024-01-29T11:15:33.525Z,16.52
2024-01-29T11:16:37.334Z,15.53
2024-01-29T11:17:42.374Z,16.15
2024-01-29T11:18:45.447Z,15.37
2024-01-29T11:19:52.373Z,14.02
2024-01-29T11:20:57.793Z,13.08
2024-01-29T11:22:02.331Z,13.55
2024-01-29T11:23:05.387Z,13.80
2024-01-29T11:24:13.031Z,13.37
2024-01-29T11:25:16.747Z,12.77
2024-01-29T11:26:20.600Z,12.63
2024-01-29T11:27:23.666Z,13.12
2024-01-29T11:28:28.105Z,13.90
2024-01-29T11:29:38.938Z,15.95
2024-01-29T11:30:48.624Z,15.33
2024-01-29T11:31:55.068Z,16.45
2024-01-29T11:33:16.957Z,15.62
2024-01-29T11:34:29.936Z,15.90
2024-01-29T11:35:39.798Z,15.53
2024-01-29T11:36:56.193Z,14.10
2024-01-29T11:38:12.807Z,13.27
2024-01-29T11:39:18.745Z,13.37
2024-01-29T11:40:34.458Z,13.12
2024-01-29T11:41:38.956Z,13.63
2024-01-29T11:42:42.499Z,12.97
2024-01-29T11:43:46.181Z,13.13
2024-01-29T11:44:50.927Z,14.27
2024-01-29T11:45:56.861Z,14.62
2024-01-29T11:47:09.892Z,14.22
2024-01-29T11:48:14.814Z,14.67
2024-01-29T11:49:28.360Z,14.33
2024-01-29T11:50:31.466Z,15.10
2024-01-29T11:51:35.640Z,15.68
2024-01-29T11:52:39.797Z,14.77
2024-01-29T11:53:42.826Z,14.85
2024-01-29T11:54:45.858Z,15.12
2024-01-29T11:55:49.987Z,15.37
2024-01-29T11:56:53.024Z,15.68
2024-01-29T11:57:56.126Z,17.07
2024-01-29T11:59:03.492Z,17.17
2024-01-29T12:00:10.878Z,16.43
2024-01-29T12:01:14.199Z,15.55
2024-01-29T12:02:17.268Z,15.42
2024-01-29T12:03:25.717Z,16.55
2024-01-29T12:04:29.006Z,15.27
2024-01-29T12:05:32.115Z,15.35
2024-01-29T12:06:35.900Z,15.88
2024-01-29T12:07:39.100Z,15.17
2024-01-29T12:08:48.980Z,15.15
2024-01-29T12:09:51.976Z,16.00
2024-01-29T12:11:03.833Z,15.78
2024-01-29T12:12:10.272Z,15.27
2024-01-29T12:13:18.935Z,14.30
2024-01-29T12:14:22.048Z,13.63
2024-01-29T12:15:25.120Z,14.92
2024-01-29T12:16:29.983Z,15.13
2024-01-29T12:17:37.870Z,14.55
2024-01-29T12:18:42.198Z,14.92
2024-01-29T12:19:45.202Z,13.95
2024-01-29T12:20:50.157Z,13.43
2024-01-29T12:21:53.243Z,13.63
2024-01-29T12:22:56.995Z,14.03
2024-01-29T12:24:00.401Z,13.73
2024-01-29T12:25:04.259Z,13.78
2024-01-29T12:26:07.310Z,14.68
2024-01-29T12:27:10.321Z,14.65
2024-01-29T12:28:17.811Z,14.03
2024-01-29T12:29:21.530Z,13.83
2024-01-29T12:30:24.530Z,13.70
2024-01-29T12:31:27.632Z,14.22
2024-01-29T12:32:30.860Z,13.67
2024-01-29T12:33:36.863Z,14.22
2024-01-29T12:34:45.478Z,14.35
2024-01-29T12:35:48.583Z,13.98
2024-01-29T12:36:54.281Z,13.85
2024-01-29T12:38:14.004Z,13.43
2024-01-29T12:39:17.087Z,13.42
2024-01-29T12:40:21.334Z,13.45
2024-01-29T12:41:24.601Z,14.03
2024-01-29T12:42:27.574Z,14.57
2024-01-29T12:43:32.689Z,13.98
2024-01-29T12:44:35.739Z,14.18
2024-01-29T12:45:39.325Z,13.40
2024-01-29T12:46:42.375Z,13.78
2024-01-29T12:47:46.007Z,14.25
2024-01-29T12:48:49.531Z,14.23
2024-01-29T12:49:52.845Z,14.53
2024-01-29T12:50:57.220Z,15.02
2024-01-29T12:52:00.305Z,15.05
2024-01-29T12:53:03.565Z,15.93
2024-01-29T12:54:07.800Z,16.72
2024-01-29T12:55:10.851Z,15.23
2024-01-29T12:56:13.885Z,14.03
2024-01-29T12:57:17.393Z,15.27
2024-01-29T12:58:20.458Z,16.20
2024-01-29T12:59:23.445Z,16.13
2024-01-29T13:00:26.449Z,15.25
2024-01-29T13:01:29.540Z,16.97
2024-01-29T13:02:32.620Z,16.22
2024-01-29T13:03:35.866Z,16.67
2024-01-29T13:04:39.095Z,16.45
2024-01-29T13:05:42.275Z,15.62
2024-01-29T13:06:46.846Z,16.03
2024-01-29T13:07:51.225Z,15.93
2024-01-29T13:08:54.298Z,15.85
2024-01-29T13:09:58.552Z,16.80
2024-01-29T13:11:02.065Z,16.77
2024-01-29T13:12:05.476Z,16.02
2024-01-29T13:13:09.523Z,15.03
2024-01-29T13:14:15.431Z,16.18
2024-01-29T13:15:18.437Z,15.07
2024-01-29T13:16:21.798Z,15.52
2024-01-29T13:17:29.818Z,15.75
2024-01-29T13:18:34.168Z,15.23
2024-01-29T13:19:37.463Z,14.75
2024-01-29T13:20:42.685Z,15.30
2024-01-29T13:21:45.877Z,14.73
2024-01-29T13:22:49.619Z,14.85
2024-01-29T13:23:52.624Z,14.95
2024-01-29T13:24:55.851Z,14.70
2024-01-29T13:25:58.883Z,14.68
2024-01-29T13:27:01.926Z,14.53
2024-01-29T13:28:08.120Z,14.27
2024-01-29T13:29:11.314Z,14.68
2024-01-29T13:30:14.377Z,14.88
2024-01-29T13:31:17.391Z,14.82
2024-01-29T13:32:20.472Z,14.60
2024-01-29T13:33:23.487Z,14.47
2024-01-29T13:34:26.551Z,14.22
2024-01-29T13:35:29.588Z,14.20
2024-01-29T13:36:32.664Z,13.77
2024-01-29T13:37:36.052Z,14.07
2024-01-29T13:38:39.957Z,13.98
2024-01-29T13:39:43.343Z,15.47
2024-01-29T13:40:48.913Z,14.40
2024-01-29T13:41:52.179Z,13.57
2024-01-29T13:42:57.242Z,13.40
2024-01-29T13:44:00.314Z,14.68
2024-01-29T13:45:05.500Z,14.08
2024-01-29T13:46:08.605Z,13.98